createdAt,value
2023-04-03T00:01:05.234Z,1.67
2023-04-03T00:03:33.281Z,1.00
2023-04-03T00:06:02.633Z,1.37
2023-04-03T00:08:31.963Z,1.20
2023-04-03T00:10:59.940Z,1.10
2023-04-03T00:13:27.888Z,1.40
2023-04-03T00:15:55.848Z,1.80
2023-04-03T00:18:23.809Z,1.60
2023-04-03T00:20:51.772Z,1.40
2023-04-03T00:23:21.136Z,1.50
2023-04-03T00:25:49.060Z,1.30
2023-04-03T00:28:17.021Z,2.07
2023-04-03T00:30:44.953Z,2.13
2023-04-03T00:33:13.984Z,2.73
2023-04-03T00:35:42.084Z,1.50
2023-04-03T00:38:10.106Z,1.43
2023-04-03T00:40:40.314Z,1.20
2023-04-03T00:43:13.017Z,1.50
2023-04-03T00:45:41.497Z,1.50
2023-04-03T00:48:11.104Z,1.67
2023-04-03T00:50:40.087Z,1.70
2023-04-03T00:53:08.455Z,2.50
2023-04-03T00:55:36.513Z,1.63
2023-04-03T00:58:06.060Z,1.67
2023-04-03T01:00:34.034Z,1.60
2023-04-03T01:03:02.353Z,1.87
2023-04-03T01:05:30.455Z,1.97
2023-04-03T01:07:58.417Z,2.30
2023-04-03T01:10:26.990Z,1.90
2023-04-03T01:12:54.959Z,1.90
2023-04-03T01:15:25.261Z,2.13
2023-04-03T01:17:53.629Z,2.77
2023-04-03T01:21:07.969Z,1.90
2023-04-03T01:23:42.928Z,2.67
2023-04-03T01:26:12.733Z,2.40
2023-04-03T01:28:40.701Z,2.20
2023-04-03T01:31:15.968Z,2.73
2023-04-03T01:33:45.308Z,2.60
2023-04-03T01:36:19.839Z,2.40
2023-04-03T01:38:47.766Z,2.30
2023-04-03T01:41:16.596Z,4.23
2023-04-03T01:43:44.629Z,2.57
2023-04-03T01:46:12.625Z,2.60
2023-04-03T01:48:40.733Z,2.83
2023-04-03T01:51:10.036Z,3.40
2023-04-03T01:53:38.036Z,3.20
2023-04-03T01:56:06.431Z,3.30
2023-04-03T01:58:34.400Z,2.20
2023-04-03T02:01:02.697Z,2.70
2023-04-03T02:03:30.732Z,3.80
2023-04-03T02:05:58.677Z,2.77
2023-04-03T02:08:28.020Z,3.50
2023-04-03T02:10:55.936Z,2.77
2023-04-03T02:13:23.880Z,3.10
2023-04-03T02:15:51.791Z,2.90
2023-04-03T02:18:19.759Z,2.47
2023-04-03T02:20:48.708Z,4.10
2023-04-03T02:23:16.657Z,3.50
2023-04-03T02:25:46.294Z,3.40
2023-04-03T02:28:14.275Z,3.20
2023-04-03T02:30:42.233Z,3.33
2023-04-03T02:33:10.198Z,3.33
2023-04-03T02:35:38.206Z,3.30
2023-04-03T02:38:06.161Z,3.10
2023-04-03T02:40:34.177Z,2.80
2023-04-03T02:43:03.827Z,3.13
2023-04-03T02:45:31.751Z,2.70
2023-04-03T02:47:59.698Z,2.40
2023-04-03T02:50:27.686Z,4.00
2023-04-03T02:52:56.253Z,4.83
2023-04-03T02:55:24.229Z,4.30
2023-04-03T02:57:52.202Z,3.33
2023-04-03T03:00:22.533Z,4.40
2023-04-03T03:02:51.121Z,4.30
2023-04-03T03:05:19.388Z,4.83
2023-04-03T03:07:47.437Z,3.60
2023-04-03T03:10:15.679Z,3.90
2023-04-03T03:12:43.601Z,3.37
2023-04-03T03:15:12.435Z,3.10
2023-04-03T03:17:41.905Z,3.13
2023-04-03T03:20:10.688Z,4.60
2023-04-03T03:22:38.669Z,4.40
2023-04-03T03:25:07.231Z,5.73
2023-04-03T03:27:35.737Z,4.47
2023-04-03T03:30:03.739Z,5.90
2023-04-03T03:32:31.733Z,5.73
2023-04-03T03:35:01.169Z,5.20
2023-04-03T03:37:29.175Z,6.53
2023-04-03T03:39:57.137Z,7.47
2023-04-03T03:42:25.216Z,7.80
2023-04-03T03:44:53.168Z,9.43
2023-04-03T03:47:21.326Z,8.57
2023-04-03T03:49:49.261Z,9.80
2023-04-03T03:52:18.631Z,10.43
2023-04-03T03:54:46.579Z,11.87
2023-04-03T03:57:14.648Z,13.73
2023-04-03T03:59:42.942Z,9.17
2023-04-03T04:02:11.026Z,9.40
2023-04-03T04:04:39.050Z,8.80
2023-04-03T04:07:07.018Z,8.00
2023-04-03T04:09:36.344Z,5.50
2023-04-03T04:12:04.443Z,4.27
2023-04-03T04:14:32.406Z,5.40
2023-04-03T04:17:00.327Z,4.57
2023-04-03T04:19:28.305Z,5.97
2023-04-03T04:21:56.299Z,5.40
2023-04-03T04:24:24.680Z,5.40
2023-04-03T04:26:54.070Z,6.03
2023-04-03T04:29:22.030Z,6.00
2023-04-03T04:31:49.999Z,6.10
2023-04-03T04:34:17.930Z,5.63
2023-04-03T04:36:45.968Z,4.87
2023-04-03T04:39:14.044Z,6.07
2023-04-03T04:41:41.999Z,5.90
2023-04-03T04:44:11.576Z,7.47
2023-04-03T04:46:39.632Z,7.03
2023-04-03T04:49:07.760Z,7.17
2023-04-03T04:51:48.257Z,5.33
2023-04-03T04:54:19.479Z,4.97
2023-04-03T04:56:47.436Z,5.80
2023-04-03T04:59:16.772Z,4.43
2023-04-03T05:01:44.809Z,5.00
2023-04-03T05:04:13.789Z,5.13
2023-04-03T05:06:42.205Z,6.37
2023-04-03T05:09:10.999Z,4.97
2023-04-03T05:11:38.987Z,5.80
2023-04-03T05:14:07.674Z,7.30
2023-04-03T05:16:37.297Z,6.57
2023-04-03T05:19:05.276Z,3.97
2023-04-03T05:21:33.620Z,4.47
2023-04-03T05:24:03.698Z,4.80
2023-04-03T05:26:31.782Z,5.10
2023-04-03T05:28:59.803Z,6.60
2023-04-03T05:31:30.363Z,5.13
2023-04-03T05:33:59.833Z,4.10
2023-04-03T05:36:28.077Z,3.77
2023-04-03T05:38:57.362Z,4.50
2023-04-03T05:41:25.930Z,6.00
2023-04-03T05:43:53.836Z,6.57
2023-04-03T05:46:22.483Z,5.80
2023-04-03T05:48:50.990Z,7.40
2023-04-03T05:51:20.888Z,8.07
2023-04-03T05:53:48.809Z,6.13
2023-04-03T05:56:16.740Z,6.90
2023-04-03T05:58:44.720Z,6.03
2023-04-03T06:01:12.778Z,4.93
2023-04-03T06:03:41.803Z,6.03
2023-04-03T06:06:10.114Z,5.27
2023-04-03T06:08:39.498Z,4.50
2023-04-03T06:11:09.696Z,4.33
2023-04-03T06:13:38.315Z,4.83
2023-04-03T06:16:07.154Z,4.23
2023-04-03T06:18:35.110Z,4.47
2023-04-03T06:21:03.900Z,5.10
2023-04-03T06:23:31.878Z,5.50
2023-04-03T06:26:01.580Z,4.67
2023-04-03T06:28:29.562Z,3.93
2023-04-03T06:30:57.597Z,6.20
2023-04-03T06:33:25.571Z,4.50
2023-04-03T06:35:58.364Z,4.53
2023-04-03T06:38:26.512Z,4.97
2023-04-03T06:40:55.030Z,5.87
2023-04-03T06:43:24.649Z,5.90
2023-04-03T06:45:52.716Z,4.60
2023-04-03T06:48:20.797Z,4.87
2023-04-03T06:50:48.729Z,5.13
2023-04-03T06:53:16.840Z,4.00
2023-04-03T06:55:44.777Z,3.43
2023-04-03T06:58:12.782Z,3.50
2023-04-03T07:00:42.161Z,3.50
2023-04-03T07:03:10.147Z,4.43
2023-04-03T07:05:38.375Z,3.40
2023-04-03T07:08:06.683Z,2.33
2023-04-03T07:10:34.602Z,3.10
2023-04-03T07:13:02.839Z,3.20
2023-04-03T07:15:30.886Z,2.50
2023-04-03T07:18:00.311Z,2.27
2023-04-03T07:20:28.369Z,2.47
2023-04-03T07:22:56.316Z,3.10
2023-04-03T07:25:24.295Z,2.10
2023-04-03T07:27:52.228Z,3.00
2023-04-03T07:30:20.399Z,2.37
2023-04-03T07:32:48.402Z,2.37
2023-04-03T07:35:18.438Z,2.40
2023-04-03T07:37:47.282Z,2.17
2023-04-03T07:40:15.722Z,2.17
2023-04-03T07:42:43.695Z,1.70
2023-04-03T07:45:12.630Z,1.83
2023-04-03T07:47:40.564Z,1.60
2023-04-03T07:50:10.031Z,1.47
2023-04-03T07:52:39.345Z,1.63
2023-04-03T07:55:08.019Z,1.30
2023-04-03T07:57:36.215Z,1.13
2023-04-03T08:00:05.742Z,2.03
2023-04-03T08:02:34.018Z,1.17
2023-04-03T08:05:02.167Z,1.17
2023-04-03T08:07:30.379Z,1.20
2023-04-03T08:09:59.769Z,1.07
2023-04-03T08:12:29.574Z,1.23
2023-04-03T08:14:57.798Z,1.33
2023-04-03T08:17:27.334Z,1.30
2023-04-03T08:19:55.492Z,2.00
2023-04-03T08:22:23.404Z,1.73
2023-04-03T08:24:58.614Z,1.83
2023-04-03T08:27:29.572Z,1.20
2023-04-03T08:29:58.010Z,1.20
2023-04-03T08:32:26.710Z,1.50
2023-04-03T08:34:54.746Z,1.80
2023-04-03T08:37:22.718Z,1.13
2023-04-03T08:39:51.102Z,1.43
2023-04-03T08:42:22.609Z,1.53
2023-04-03T08:44:54.831Z,1.40
2023-04-03T08:47:26.322Z,1.07
2023-04-03T08:49:55.500Z,1.20
2023-04-03T08:52:26.794Z,1.57
2023-04-03T08:54:56.308Z,1.10
2023-04-03T08:57:30.551Z,1.00
2023-04-03T09:00:03.134Z,1.03
2023-04-03T09:02:33.639Z,0.80
2023-04-03T09:05:01.637Z,1.10
2023-04-03T09:07:35.493Z,1.60
2023-04-03T09:10:04.188Z,0.87
2023-04-03T09:12:36.169Z,1.13
2023-04-03T09:15:12.240Z,1.00
2023-04-03T09:17:44.603Z,1.00
2023-04-03T09:20:20.945Z,1.07
2023-04-03T09:22:52.266Z,1.13
2023-04-03T09:25:22.452Z,0.80
2023-04-03T09:27:52.261Z,1.17
2023-04-03T09:30:22.614Z,0.90
2023-04-03T09:32:51.976Z,1.13
2023-04-03T09:35:27.365Z,0.80
2023-04-03T09:38:01.276Z,1.00
2023-04-03T09:40:37.347Z,1.10
2023-04-03T09:43:24.339Z,1.00
2023-04-03T09:45:53.944Z,0.90
2023-04-03T09:48:22.537Z,1.20
2023-04-03T09:51:00.173Z,1.00
2023-04-03T09:53:33.572Z,2.27
2023-04-03T09:56:01.654Z,4.57
2023-04-03T09:58:42.805Z,1.30
2023-04-03T10:01:26.169Z,1.43
2023-04-03T10:04:09.074Z,0.70
2023-04-03T10:06:37.914Z,1.20
2023-04-03T10:09:22.569Z,1.10
2023-04-03T10:12:01.119Z,0.90
2023-04-03T10:14:29.307Z,0.70
2023-04-03T10:17:01.919Z,1.00
2023-04-03T10:19:36.720Z,1.10
2023-04-03T10:22:06.629Z,0.80
2023-04-03T10:24:38.698Z,1.20
2023-04-03T10:27:08.811Z,1.00
2023-04-03T10:29:40.726Z,0.70
2023-04-03T10:32:20.289Z,1.10
2023-04-03T10:35:02.358Z,1.20
2023-04-03T10:37:37.722Z,0.80
2023-04-03T10:40:22.870Z,0.73
2023-04-03T10:42:52.704Z,0.90
2023-04-03T10:45:23.282Z,0.77
2023-04-03T10:47:58.990Z,0.93
2023-04-03T10:50:34.167Z,0.73
2023-04-03T10:53:07.078Z,1.13
2023-04-03T10:55:38.347Z,0.80
2023-04-03T10:58:07.065Z,0.70
2023-04-03T11:00:39.398Z,0.80
2023-04-03T11:03:11.395Z,0.93
2023-04-03T11:05:41.808Z,0.90
2023-04-03T11:08:13.158Z,0.80
2023-04-03T11:10:43.418Z,0.67
2023-04-03T11:13:14.484Z,1.20
2023-04-03T11:15:42.450Z,0.77
2023-04-03T11:18:13.391Z,1.00
2023-04-03T11:20:41.364Z,0.93
2023-04-03T11:23:15.215Z,0.70
2023-04-03T11:25:45.567Z,0.80
2023-04-03T11:28:14.683Z,0.90
2023-04-03T11:30:46.750Z,0.70
2023-04-03T11:33:28.126Z,0.90
2023-04-03T11:35:58.167Z,0.50
2023-04-03T11:38:27.570Z,0.60
2023-04-03T11:40:56.265Z,0.90
2023-04-03T11:43:26.897Z,0.70
2023-04-03T11:46:00.226Z,0.80
2023-04-03T11:48:49.826Z,0.60
2023-04-03T11:51:43.423Z,0.60
2023-04-03T11:54:53.728Z,0.70
2023-04-03T11:57:48.020Z,0.70
2023-04-03T12:00:53.787Z,0.80
2023-04-03T12:04:03.396Z,0.90
2023-04-03T12:07:21.970Z,0.80
2023-04-03T12:10:30.928Z,0.77
2023-04-03T12:13:03.494Z,0.80
2023-04-03T12:15:55.322Z,0.93
2023-04-03T12:18:44.812Z,0.90
2023-04-03T12:21:13.488Z,0.63
2023-04-03T12:24:01.504Z,0.83
2023-04-03T12:26:42.122Z,0.80
2023-04-03T12:29:18.458Z,0.67
2023-04-03T12:31:50.508Z,0.87
2023-04-03T12:34:28.007Z,0.80
2023-04-03T12:37:01.716Z,0.83
2023-04-03T12:39:58.015Z,0.70
2023-04-03T12:42:35.198Z,1.53
2023-04-03T12:45:04.897Z,0.50
2023-04-03T12:47:37.131Z,0.60
2023-04-03T12:50:05.792Z,0.70
2023-04-03T12:52:37.566Z,0.70
2023-04-03T12:55:06.728Z,0.73
2023-04-03T12:57:36.387Z,0.90
2023-04-03T13:00:39.974Z,0.60
2023-04-03T13:03:08.476Z,0.83
2023-04-03T13:05:37.427Z,1.20
2023-04-03T13:08:06.780Z,1.27
2023-04-03T13:10:34.802Z,0.73
2023-04-03T13:13:10.918Z,0.80
2023-04-03T13:15:43.615Z,1.30
2023-04-03T13:18:24.376Z,1.60
2023-04-03T13:20:52.339Z,1.27
2023-04-03T13:23:21.644Z,0.70
2023-04-03T13:25:49.761Z,0.93
2023-04-03T13:28:21.542Z,0.90
2023-04-03T13:31:04.445Z,0.70
2023-04-03T13:33:33.900Z,0.77
2023-04-03T13:36:04.759Z,0.70
2023-04-03T13:38:34.769Z,0.80
2023-04-03T13:41:05.435Z,1.00
2023-04-03T13:43:35.839Z,0.90
2023-04-03T13:46:07.568Z,0.80
2023-04-03T13:48:40.490Z,1.00
2023-04-03T13:51:18.047Z,0.93
2023-04-03T13:53:46.983Z,0.70
2023-04-03T13:56:21.742Z,0.90
2023-04-03T13:58:59.590Z,0.80
2023-04-03T14:01:27.744Z,0.90
2023-04-03T14:03:57.479Z,1.17
2023-04-03T14:06:25.722Z,0.83
2023-04-03T14:08:53.820Z,1.20
2023-04-03T14:11:23.414Z,1.40
2023-04-03T14:13:51.770Z,3.07
2023-04-03T14:16:22.884Z,1.60
2023-04-03T14:18:52.390Z,1.40
2023-04-03T14:21:20.921Z,1.10
2023-04-03T14:23:48.953Z,1.00
2023-04-03T14:26:18.757Z,0.90
2023-04-03T14:28:47.498Z,0.83
2023-04-03T14:31:15.928Z,0.80
2023-04-03T14:33:45.736Z,1.10
2023-04-03T14:36:15.217Z,0.80
2023-04-03T14:38:43.592Z,1.03
2023-04-03T14:41:16.669Z,1.07
2023-04-03T14:43:45.769Z,1.50
2023-04-03T14:46:15.280Z,0.83
2023-04-03T14:48:43.481Z,1.00
2023-04-03T14:51:14.338Z,1.20
2023-04-03T14:53:43.027Z,1.00
2023-04-03T14:56:14.849Z,1.20
2023-04-03T14:58:42.818Z,1.33
2023-04-03T15:01:12.875Z,1.83
2023-04-03T15:03:41.033Z,3.43
2023-04-03T15:06:11.119Z,1.90
2023-04-03T15:08:42.117Z,1.30
2023-04-03T15:11:10.599Z,1.47
2023-04-03T15:13:38.636Z,1.60
2023-04-03T15:16:06.820Z,2.00
2023-04-03T15:18:38.646Z,1.57
2023-04-03T15:21:06.671Z,1.60
2023-04-03T15:23:34.668Z,1.90
2023-04-03T15:26:04.070Z,1.90
2023-04-03T15:28:33.232Z,1.87
2023-04-03T15:31:01.226Z,2.00
2023-04-03T15:33:29.824Z,1.90
2023-04-03T15:36:06.596Z,1.80
2023-04-03T15:38:35.487Z,1.67
2023-04-03T15:41:04.876Z,1.70
2023-04-03T15:43:34.762Z,2.07
2023-04-03T15:46:02.775Z,2.43
2023-04-03T15:48:30.867Z,1.63
2023-04-03T15:50:59.356Z,1.60
2023-04-03T15:53:27.446Z,2.33
2023-04-03T15:55:55.422Z,1.97
2023-04-03T15:58:24.866Z,2.63
2023-04-03T16:00:52.881Z,1.40
2023-04-03T16:03:21.773Z,1.50
2023-04-03T16:05:50.275Z,1.73
2023-04-03T16:08:18.860Z,1.60
2023-04-03T16:10:47.985Z,1.37
2023-04-03T16:13:16.205Z,0.97
2023-04-03T16:15:45.592Z,1.50
2023-04-03T16:18:15.005Z,1.43
2023-04-03T16:20:44.724Z,1.20
2023-04-03T16:23:12.736Z,1.10
2023-04-03T16:25:40.934Z,2.03
2023-04-03T16:28:09.176Z,1.93
2023-04-03T16:30:37.146Z,2.37
2023-04-03T16:33:06.591Z,4.20
2023-04-03T16:35:34.693Z,4.73
2023-04-03T16:38:02.680Z,3.70
2023-04-03T16:40:30.664Z,4.40
2023-04-03T16:42:58.664Z,3.20
2023-04-03T16:45:26.634Z,2.03
2023-04-03T16:47:54.706Z,1.83
2023-04-03T16:50:24.165Z,1.90
2023-04-03T16:52:52.153Z,1.40
2023-04-03T16:55:21.666Z,2.00
2023-04-03T16:57:49.640Z,2.03
2023-04-03T17:00:18.338Z,2.83
2023-04-03T17:02:46.460Z,1.93
2023-04-03T17:05:14.506Z,2.20
2023-04-03T17:07:43.963Z,3.73
2023-04-03T17:10:12.053Z,2.77
2023-04-03T17:12:40.047Z,4.20
2023-04-03T17:15:08.976Z,3.80
2023-04-03T17:17:37.000Z,3.90
2023-04-03T17:20:05.515Z,3.07
2023-04-03T17:22:33.776Z,3.20
2023-04-03T17:25:03.199Z,2.10
2023-04-03T17:27:31.265Z,2.73
2023-04-03T17:29:59.875Z,2.40
2023-04-03T17:32:27.946Z,1.80
2023-04-03T17:34:56.162Z,2.33
2023-04-03T17:37:24.161Z,3.53
2023-04-03T17:39:52.141Z,2.77
2023-04-03T17:42:21.541Z,2.20
2023-04-03T17:44:49.541Z,2.77
2023-04-03T17:47:17.520Z,3.20
2023-04-03T17:49:45.469Z,3.30
2023-04-03T17:52:13.424Z,3.17
2023-04-03T17:54:41.504Z,3.33
2023-04-03T17:57:09.509Z,4.23
2023-04-03T17:59:38.886Z,4.10
2023-04-03T18:02:06.841Z,4.20
2023-04-03T18:04:34.837Z,4.23
2023-04-03T18:07:02.821Z,3.40
2023-04-03T18:09:32.183Z,4.07
2023-04-03T18:12:00.284Z,4.70
2023-04-03T18:14:28.370Z,4.50
2023-04-03T18:16:58.857Z,4.20
2023-04-03T18:19:28.425Z,3.30
2023-04-03T18:21:58.395Z,3.60
2023-04-03T18:24:26.454Z,3.27
2023-04-03T18:26:56.832Z,3.47
2023-04-03T18:29:24.831Z,3.47
2023-04-03T18:31:53.686Z,3.43
2023-04-03T18:34:23.126Z,4.13
2023-04-03T18:36:52.424Z,2.93
2023-04-03T18:39:21.095Z,3.37
2023-04-03T18:41:49.691Z,4.27
2023-04-03T18:44:19.558Z,4.03
2023-04-03T18:46:47.574Z,3.60
2023-04-03T18:49:16.717Z,3.07
2023-04-03T18:51:46.444Z,3.37
2023-04-03T18:54:14.471Z,4.07
2023-04-03T18:56:42.473Z,2.80
2023-04-03T18:59:10.526Z,3.30
2023-04-03T19:01:38.672Z,2.83
2023-04-03T19:04:06.693Z,3.30
2023-04-03T19:06:34.690Z,2.90
2023-04-03T19:09:04.984Z,2.80
2023-04-03T19:11:33.016Z,3.27
2023-04-03T19:14:10.420Z,3.40
2023-04-03T19:16:43.708Z,3.60
2023-04-03T19:19:11.777Z,3.10
2023-04-03T19:21:41.469Z,3.47
2023-04-03T19:24:11.267Z,2.30
2023-04-03T19:26:39.294Z,3.10
2023-04-03T19:29:07.245Z,2.90
2023-04-03T19:31:36.836Z,3.17
2023-04-03T19:34:04.926Z,2.53
2023-04-03T19:36:33.023Z,3.87
2023-04-03T19:39:00.991Z,2.70
2023-04-03T19:41:31.640Z,3.27
2023-04-03T19:43:59.627Z,3.07
2023-04-03T19:46:28.165Z,2.40
2023-04-03T19:48:56.161Z,2.17
2023-04-03T19:51:24.147Z,1.93
2023-04-03T19:53:52.092Z,2.50
2023-04-03T19:56:21.298Z,3.10
2023-04-03T19:58:54.149Z,3.17
2023-04-03T20:01:22.917Z,2.20
2023-04-03T20:03:50.915Z,2.67
2023-04-03T20:06:18.906Z,2.27
2023-04-03T20:08:46.833Z,2.57
2023-04-03T20:11:14.780Z,2.33
2023-04-03T20:13:42.730Z,2.27
2023-04-03T20:16:12.463Z,2.60
2023-04-03T20:18:42.419Z,2.33
2023-04-03T20:21:10.841Z,2.20
2023-04-03T20:23:38.895Z,2.80
2023-04-03T20:26:12.027Z,1.90
2023-04-03T20:28:43.529Z,2.70
2023-04-03T20:31:14.215Z,2.33
2023-04-03T20:33:42.851Z,2.33
2023-04-03T20:36:10.866Z,2.90
2023-04-03T20:38:38.826Z,2.60
2023-04-03T20:41:06.798Z,2.23
2023-04-03T20:43:35.345Z,3.20
2023-04-03T20:46:04.451Z,2.53
2023-04-03T20:48:33.774Z,2.70
2023-04-03T20:51:09.682Z,2.37
2023-04-03T20:53:37.702Z,2.77
2023-04-03T20:56:09.040Z,2.80
2023-04-03T20:58:39.007Z,3.00
2023-04-03T21:01:14.577Z,2.90
2023-04-03T21:03:43.969Z,3.00
2023-04-03T21:06:49.736Z,3.20
2023-04-03T21:09:55.785Z,2.47
2023-04-03T21:13:01.450Z,2.93
2023-04-03T21:15:47.375Z,2.90
2023-04-03T21:18:40.414Z,1.83
2023-04-03T21:21:08.396Z,3.17
2023-04-03T21:23:36.340Z,1.70
2023-04-03T21:26:04.261Z,2.87
2023-04-03T21:28:32.632Z,2.47
2023-04-03T21:31:00.585Z,2.30
2023-04-03T21:33:28.555Z,2.60
2023-04-03T21:36:00.012Z,3.00
2023-04-03T21:38:28.257Z,2.87
2023-04-03T21:40:57.773Z,2.43
2023-04-03T21:43:25.788Z,2.13
2023-04-03T21:45:54.719Z,2.33
2023-04-03T21:48:23.353Z,1.70
2023-04-03T21:50:52.584Z,2.40
2023-04-03T21:53:22.604Z,2.73
2023-04-03T21:55:57.367Z,2.00
2023-04-03T21:58:30.601Z,1.80
2023-04-03T22:00:58.862Z,2.57
2023-04-03T22:03:27.319Z,2.57
2023-04-03T22:05:55.422Z,2.13
2023-04-03T22:08:24.807Z,2.30
2023-04-03T22:10:52.978Z,2.00
2023-04-03T22:13:20.948Z,2.37
2023-04-03T22:15:48.937Z,2.00
2023-04-03T22:18:16.863Z,2.30
2023-04-03T22:20:44.889Z,1.90
2023-04-03T22:23:12.847Z,2.10
2023-04-03T22:25:42.143Z,2.33
2023-04-03T22:28:10.064Z,2.37
2023-04-03T22:30:38.711Z,2.33
2023-04-03T22:33:08.058Z,2.00
2023-04-03T22:35:36.435Z,1.20
2023-04-03T22:38:04.411Z,1.57
2023-04-03T22:40:33.686Z,2.20
2023-04-03T22:43:03.029Z,1.57
2023-04-03T22:45:30.934Z,1.57
2023-04-03T22:47:59.007Z,1.60
2023-04-03T22:50:27.051Z,1.50
2023-04-03T22:52:54.988Z,1.87
2023-04-03T22:55:24.533Z,1.77
2023-04-03T22:57:52.480Z,1.93
2023-04-03T23:00:21.868Z,1.90
2023-04-03T23:02:49.801Z,2.40
2023-04-03T23:05:17.834Z,1.90
2023-04-03T23:07:45.849Z,2.33
2023-04-03T23:10:13.783Z,1.70
2023-04-03T23:12:41.814Z,1.97
2023-04-03T23:15:10.323Z,1.63
2023-04-03T23:17:39.713Z,2.40
2023-04-03T23:20:08.615Z,1.90
2023-04-03T23:22:36.537Z,2.43
2023-04-03T23:25:04.603Z,2.70
2023-04-03T23:27:32.524Z,2.23
2023-04-03T23:30:00.608Z,1.70
2023-04-03T23:32:28.566Z,2.43
2023-04-03T23:34:58.273Z,3.20
2023-04-03T23:37:26.238Z,2.60
2023-04-03T23:39:54.142Z,2.40
2023-04-03T23:42:22.092Z,2.43
2023-04-03T23:44:50.047Z,3.20
2023-04-03T23:47:18.018Z,2.97
2023-04-03T23:49:46.028Z,2.10
2023-04-03T23:52:15.328Z,2.17
2023-04-03T23:54:43.309Z,2.70
2023-04-03T23:57:11.229Z,2.10
2023-04-03T23:59:39.151Z,2.80
